メインページ
METAR-TAF:

METAR-TAF

空港 :

ハノイ, ベトナム

ノイバイ国際空港

緯度: 21-01N, 経度: 105-48E, 海抜: 6m

現時点の気象観測

当レポートは30分前の20:30(UTC)に作成
の風 4kt
気温 22°C
湿度 100%
気圧 1014 hPa
視程: 5000m
高度1100ftの雲はほとんどない
高度4100ftの千切れ雲あり

METAR: VVNB 292030Z 09004KT 5000 BR FEW011 BKN041 22/22 Q1014 NOSIG

時間: 04:00 (21:00 UTC)

予報

当レポートは4時間0分前の17:00(UTC)に作成
予報は29日の 18時(UTC)から 30日の 18時(UTC)まで有効
東/南東の風 6kt
視程: 3500m
高度2000ftの雲はほとんどない
高度4000ftの千切れ雲あり
29日の 21時(UTC)から 30日の 02時(UTC)まで一時的に
視程: 1200m
高度1000ftの雲は散在している
高度3000ftの千切れ雲あり
雨, 靄
30日の 03時(UTC)から 30日の 04時(UTC)まで徐々に
視程: 6000m

TAF: VVNB 291700Z 2918/3018 11006KT 3500 BR FEW020 BKN040 TEMPO 2921/3002 1200 RA BR SCT010 BKN030 BECMG 3003/3004 6000 NSW

4,000以上の空港の気象観測と天気予報(METAR報とTAF報)

利用可能な観測所は地図上に黄色い丸と赤い丸で示す。

丸の上にカーソルを重ねると観測所名を参照できる。

次にクリックすると気象観測と天気予報を参照できる。

マップの切り替え:黒色「×」印の緑ボタンをクリックして拡大、「-」印の緑ボタンをクリックして縮小、緑色の三角印をクリックして隣りの地図に切り替え


METAR-TAF: